createdAt,value
2022-10-22T00:00:53.674Z,15.70
2022-10-22T00:03:26.256Z,15.70
2022-10-22T00:05:58.937Z,15.70
2022-10-22T00:08:31.614Z,15.70
2022-10-22T00:11:15.089Z,15.70
2022-10-22T00:13:48.167Z,15.60
2022-10-22T00:16:20.629Z,15.60
2022-10-22T00:18:53.087Z,15.60
2022-10-22T00:21:29.319Z,15.70
2022-10-22T00:24:02.140Z,15.70
2022-10-22T00:26:34.599Z,15.70
2022-10-22T00:29:07.197Z,15.70
2022-10-22T00:31:39.652Z,15.70
2022-10-22T00:34:12.159Z,15.80
2022-10-22T00:36:44.740Z,15.80
2022-10-22T00:39:19.311Z,15.80
2022-10-22T00:41:54.263Z,15.80
2022-10-22T00:44:57.672Z,15.80
2022-10-22T00:47:35.675Z,15.80
2022-10-22T00:50:13.457Z,15.70
2022-10-22T00:52:47.339Z,15.70
2022-10-22T00:55:22.737Z,15.70
2022-10-22T00:57:57.543Z,15.70
2022-10-22T01:00:30.641Z,15.70
2022-10-22T01:03:03.207Z,15.70
2022-10-22T01:05:44.394Z,15.70
2022-10-22T01:08:29.022Z,15.70
2022-10-22T01:11:23.481Z,15.70
2022-10-22T01:14:11.425Z,15.70
2022-10-22T01:16:57.419Z,15.70
2022-10-22T01:19:53.093Z,15.70
2022-10-22T01:22:44.308Z,15.70
2022-10-22T01:25:33.117Z,15.70
2022-10-22T01:28:22.098Z,15.70
2022-10-22T01:30:58.935Z,15.60
2022-10-22T01:33:33.168Z,15.60
2022-10-22T01:36:06.195Z,15.70
2022-10-22T01:38:39.307Z,15.70
2022-10-22T01:41:11.828Z,15.60
2022-10-22T01:43:44.362Z,15.60
2022-10-22T01:46:19.064Z,15.70
2022-10-22T01:49:15.887Z,15.60
2022-10-22T01:52:11.704Z,15.60
2022-10-22T01:54:54.604Z,15.60
2022-10-22T01:57:44.587Z,15.50
2022-10-22T02:00:18.983Z,15.50
2022-10-22T02:02:59.275Z,15.50
2022-10-22T02:05:41.359Z,15.50
2022-10-22T02:08:19.022Z,15.60
2022-10-22T02:10:53.033Z,15.60
2022-10-22T02:13:30.166Z,15.60
2022-10-22T02:16:06.834Z,15.50
2022-10-22T02:18:43.249Z,15.60
2022-10-22T02:21:17.034Z,15.60
2022-10-22T02:23:50.057Z,15.60
2022-10-22T02:26:33.823Z,15.60
2022-10-22T02:29:21.000Z,15.60
2022-10-22T02:31:56.285Z,15.60
2022-10-22T02:34:30.295Z,15.60
2022-10-22T02:37:04.637Z,15.60
2022-10-22T02:39:38.272Z,15.60
2022-10-22T02:42:12.563Z,15.60
2022-10-22T02:44:45.049Z,15.60
2022-10-22T02:47:17.566Z,15.60
2022-10-22T02:49:49.953Z,15.60
2022-10-22T02:52:22.388Z,15.60
2022-10-22T02:54:54.813Z,15.60
2022-10-22T02:57:27.602Z,15.50
2022-10-22T03:00:00.135Z,15.50
2022-10-22T03:02:32.718Z,15.50
2022-10-22T03:05:06.784Z,15.50
2022-10-22T03:07:39.759Z,15.50
2022-10-22T03:10:12.397Z,15.50
2022-10-22T03:12:44.861Z,15.50
2022-10-22T03:15:17.698Z,15.50
2022-10-22T03:17:50.275Z,15.50
2022-10-22T03:20:22.801Z,15.40
2022-10-22T03:22:57.017Z,15.50
2022-10-22T03:25:34.732Z,15.50
2022-10-22T03:28:11.055Z,15.50
2022-10-22T03:30:43.488Z,15.50
2022-10-22T03:33:16.128Z,15.50
2022-10-22T03:35:48.703Z,15.50
2022-10-22T03:38:21.289Z,15.50
2022-10-22T03:40:53.962Z,15.50
2022-10-22T03:43:26.757Z,15.50
2022-10-22T03:45:59.257Z,15.50
2022-10-22T03:48:31.800Z,15.50
2022-10-22T03:51:04.903Z,15.50
2022-10-22T03:53:37.454Z,15.50
2022-10-22T03:56:11.223Z,15.50
2022-10-22T03:58:43.809Z,15.50
2022-10-22T04:01:16.335Z,15.40
2022-10-22T04:03:48.809Z,15.40
2022-10-22T04:06:21.318Z,15.40
2022-10-22T04:08:53.738Z,15.40
2022-10-22T04:11:26.185Z,15.40
2022-10-22T04:13:58.688Z,15.40
2022-10-22T04:16:32.977Z,15.40
2022-10-22T04:19:05.399Z,15.50
2022-10-22T04:21:37.769Z,15.50
2022-10-22T04:24:10.502Z,15.50
2022-10-22T04:26:43.537Z,15.50
2022-10-22T04:29:16.490Z,15.50
2022-10-22T04:31:49.431Z,15.50
2022-10-22T04:34:22.099Z,15.50
2022-10-22T04:36:54.860Z,15.60
2022-10-22T04:39:27.429Z,15.60
2022-10-22T04:41:59.941Z,15.60
2022-10-22T04:44:32.715Z,15.60
2022-10-22T04:47:05.301Z,15.60
2022-10-22T04:49:37.947Z,15.60
2022-10-22T04:52:10.488Z,15.60
2022-10-22T04:54:43.031Z,15.60
2022-10-22T04:57:15.439Z,15.60
2022-10-22T04:59:47.939Z,15.60
2022-10-22T05:02:20.382Z,15.70
2022-10-22T05:04:53.006Z,15.70
2022-10-22T05:07:25.579Z,15.70
2022-10-22T05:09:58.432Z,15.70
2022-10-22T05:12:31.142Z,15.70
2022-10-22T05:15:03.780Z,15.70
2022-10-22T05:17:37.937Z,15.70
2022-10-22T05:20:11.182Z,15.70
2022-10-22T05:22:43.604Z,15.70
2022-10-22T05:25:16.337Z,15.70
2022-10-22T05:27:50.723Z,15.80
2022-10-22T05:30:23.243Z,15.80
2022-10-22T05:32:55.726Z,15.80
2022-10-22T05:35:28.244Z,15.80
2022-10-22T05:38:00.747Z,15.80
2022-10-22T05:40:33.237Z,15.80
2022-10-22T05:43:05.697Z,15.90
2022-10-22T05:45:41.632Z,15.90
2022-10-22T05:48:14.079Z,15.90
2022-10-22T05:50:50.971Z,15.90
2022-10-22T05:53:23.710Z,16.00
2022-10-22T05:55:56.121Z,15.90
2022-10-22T05:58:28.775Z,16.00
2022-10-22T06:01:06.231Z,16.00
2022-10-22T06:03:38.682Z,16.00
2022-10-22T06:06:22.117Z,16.10
2022-10-22T06:08:56.152Z,16.10
2022-10-22T06:11:31.144Z,16.10
2022-10-22T06:14:06.841Z,16.10
2022-10-22T06:16:42.383Z,16.20
2022-10-22T06:19:18.177Z,16.20
2022-10-22T06:21:50.844Z,16.20
2022-10-22T06:24:23.436Z,16.20
2022-10-22T06:26:56.009Z,16.20
2022-10-22T06:29:28.585Z,16.30
2022-10-22T06:32:01.391Z,16.40
2022-10-22T06:34:35.242Z,16.40
2022-10-22T06:37:08.901Z,16.60
2022-10-22T06:39:41.651Z,17.00
2022-10-22T06:42:14.169Z,17.40
2022-10-22T06:44:47.241Z,17.50
2022-10-22T06:47:20.076Z,17.60
2022-10-22T06:49:52.789Z,17.60
2022-10-22T06:52:25.358Z,17.80
2022-10-22T06:54:57.889Z,18.00
2022-10-22T06:57:32.852Z,18.10
2022-10-22T07:00:08.159Z,18.20
2022-10-22T07:02:40.823Z,18.30
2022-10-22T07:05:13.703Z,18.40
2022-10-22T07:07:46.310Z,18.40
2022-10-22T07:10:20.328Z,18.60
2022-10-22T07:12:53.286Z,18.70
2022-10-22T07:15:25.910Z,18.70
2022-10-22T07:17:58.399Z,18.80
2022-10-22T07:20:31.060Z,18.80
2022-10-22T07:23:03.628Z,18.80
2022-10-22T07:25:36.170Z,18.90
2022-10-22T07:28:09.180Z,18.90
2022-10-22T07:30:41.887Z,19.00
2022-10-22T07:33:14.459Z,19.00
2022-10-22T07:35:47.155Z,19.20
2022-10-22T07:38:20.045Z,19.30
2022-10-22T07:40:52.612Z,19.30
2022-10-22T07:43:25.605Z,19.30
2022-10-22T07:45:58.085Z,19.40
2022-10-22T07:48:30.735Z,19.50
2022-10-22T07:51:04.572Z,19.60
2022-10-22T07:53:37.454Z,19.60
2022-10-22T07:56:09.933Z,19.70
2022-10-22T07:58:42.601Z,19.80
2022-10-22T08:01:15.481Z,19.90
2022-10-22T08:03:49.309Z,20.00
2022-10-22T08:06:21.885Z,20.20
2022-10-22T08:08:54.693Z,20.30
2022-10-22T08:11:27.829Z,20.50
2022-10-22T08:14:00.690Z,20.70
2022-10-22T08:16:33.154Z,20.80
2022-10-22T08:19:05.689Z,20.80
2022-10-22T08:21:38.252Z,20.80
2022-10-22T08:24:10.831Z,20.80
2022-10-22T08:26:43.462Z,20.70
2022-10-22T08:29:16.154Z,20.60
2022-10-22T08:31:48.622Z,20.60
2022-10-22T08:34:21.419Z,20.50
2022-10-22T08:36:54.421Z,20.60
2022-10-22T08:39:27.353Z,20.60
2022-10-22T08:42:08.962Z,20.50
2022-10-22T08:44:52.485Z,20.40
2022-10-22T08:47:29.754Z,20.30
2022-10-22T08:50:02.812Z,20.20
2022-10-22T08:52:37.522Z,20.20
2022-10-22T08:55:15.914Z,20.20
2022-10-22T08:57:57.897Z,20.20
2022-10-22T09:00:46.390Z,20.20
2022-10-22T09:03:43.004Z,20.30
2022-10-22T09:06:25.820Z,20.50
2022-10-22T09:09:00.537Z,20.50
2022-10-22T09:11:38.032Z,20.50
2022-10-22T09:16:58.935Z,20.70
2022-10-22T09:19:55.703Z,20.70
2022-10-22T09:22:36.026Z,20.80
2022-10-22T09:25:19.985Z,20.80
2022-10-22T09:27:54.905Z,20.90
2022-10-22T09:30:30.467Z,21.00
2022-10-22T09:33:10.336Z,21.20
2022-10-22T09:35:51.513Z,21.20
2022-10-22T09:38:28.443Z,21.30
2022-10-22T09:41:04.249Z,21.30
2022-10-22T09:43:37.328Z,21.30
2022-10-22T09:46:18.604Z,21.30
2022-10-22T09:49:14.790Z,21.20
2022-10-22T09:52:03.055Z,21.20
2022-10-22T09:54:42.386Z,21.10
2022-10-22T09:57:22.503Z,21.00
2022-10-22T09:59:57.875Z,21.00
2022-10-22T10:02:38.696Z,21.00
2022-10-22T10:05:21.343Z,20.90
2022-10-22T10:07:54.034Z,20.90
2022-10-22T10:10:35.764Z,20.90
2022-10-22T10:13:24.172Z,21.00
2022-10-22T10:16:16.182Z,21.00
2022-10-22T10:19:19.514Z,21.20
2022-10-22T10:21:57.083Z,21.20
2022-10-22T10:24:50.832Z,21.30
2022-10-22T10:27:35.184Z,21.30
2022-10-22T10:30:21.962Z,21.40
2022-10-22T10:33:09.444Z,21.60
2022-10-22T10:35:45.855Z,21.70
2022-10-22T10:38:34.169Z,21.70
2022-10-22T10:41:07.271Z,21.70
2022-10-22T10:43:41.587Z,21.80
2022-10-22T10:46:31.179Z,21.90
2022-10-22T10:49:10.257Z,22.00
2022-10-22T10:51:51.163Z,22.00
2022-10-22T10:54:30.092Z,22.00
2022-10-22T10:57:33.308Z,22.10
2022-10-22T11:00:08.320Z,22.10
2022-10-22T11:03:00.006Z,22.20
2022-10-22T11:05:39.903Z,22.20
2022-10-22T11:08:19.360Z,22.30
2022-10-22T11:11:00.875Z,22.40
2022-10-22T11:14:05.105Z,22.20
2022-10-22T11:16:43.366Z,22.10
2022-10-22T11:19:50.869Z,21.90
2022-10-22T11:23:00.497Z,21.90
2022-10-22T11:25:44.003Z,21.80
2022-10-22T11:28:36.129Z,21.70
2022-10-22T11:31:15.108Z,21.70
2022-10-22T11:34:15.259Z,21.70
2022-10-22T11:36:55.763Z,21.60
2022-10-22T11:39:39.626Z,21.60
2022-10-22T11:42:21.567Z,21.60
2022-10-22T11:45:17.007Z,21.60
2022-10-22T11:47:57.650Z,21.70
2022-10-22T11:50:49.371Z,21.60
2022-10-22T11:53:31.432Z,21.60
2022-10-22T11:56:04.726Z,21.60
2022-10-22T11:58:42.338Z,21.60
2022-10-22T12:01:23.231Z,21.60
2022-10-22T12:03:58.717Z,21.60
2022-10-22T12:06:55.593Z,21.60
2022-10-22T12:09:32.569Z,21.60
2022-10-22T12:12:14.623Z,21.50
2022-10-22T12:14:57.625Z,21.50
2022-10-22T12:17:31.863Z,21.40
2022-10-22T12:20:19.716Z,21.40
2022-10-22T12:22:53.319Z,21.40
2022-10-22T12:25:35.445Z,21.40
2022-10-22T12:28:12.543Z,21.50
2022-10-22T12:30:45.121Z,21.40
2022-10-22T12:33:22.456Z,21.50
2022-10-22T12:35:58.105Z,21.50
2022-10-22T12:38:31.486Z,21.60
2022-10-22T12:41:04.577Z,21.60
2022-10-22T12:43:39.934Z,21.60
2022-10-22T12:46:14.255Z,21.60
2022-10-22T12:48:47.245Z,21.60
2022-10-22T12:51:21.272Z,21.60
2022-10-22T12:53:57.129Z,21.60
2022-10-22T12:56:34.080Z,21.50
2022-10-22T12:59:28.159Z,21.50
2022-10-22T13:02:01.298Z,21.60
2022-10-22T13:04:36.649Z,21.60
2022-10-22T13:07:19.922Z,21.60
2022-10-22T13:10:00.332Z,21.60
2022-10-22T13:12:37.214Z,21.70
2022-10-22T13:15:28.430Z,21.60
2022-10-22T13:18:24.022Z,21.60
2022-10-22T13:21:02.050Z,21.60
2022-10-22T13:23:35.276Z,21.60
2022-10-22T13:26:18.068Z,21.60
2022-10-22T13:28:53.385Z,21.50
2022-10-22T13:31:29.185Z,21.50
2022-10-22T13:34:09.903Z,21.50
2022-10-22T13:36:44.756Z,21.40
2022-10-22T13:39:23.581Z,21.50
2022-10-22T13:41:56.125Z,21.40
2022-10-22T13:44:28.725Z,21.50
2022-10-22T13:47:01.293Z,21.40
2022-10-22T13:49:34.077Z,21.50
2022-10-22T13:52:06.880Z,21.40
2022-10-22T13:54:39.513Z,21.50
2022-10-22T13:57:12.137Z,21.50
2022-10-22T13:59:44.669Z,21.50
2022-10-22T14:02:18.442Z,21.50
2022-10-22T14:04:51.897Z,21.50
2022-10-22T14:07:24.474Z,21.40
2022-10-22T14:09:57.028Z,21.40
2022-10-22T14:12:29.669Z,21.40
2022-10-22T14:15:02.204Z,21.40
2022-10-22T14:17:35.374Z,21.40
2022-10-22T14:20:10.760Z,21.40
2022-10-22T14:22:43.679Z,21.30
2022-10-22T14:25:18.300Z,21.30
2022-10-22T14:27:51.480Z,21.30
2022-10-22T14:30:25.558Z,21.20
2022-10-22T14:32:58.887Z,21.20
2022-10-22T14:35:31.604Z,21.20
2022-10-22T14:38:04.372Z,21.10
2022-10-22T14:40:39.771Z,21.10
2022-10-22T14:43:19.099Z,21.10
2022-10-22T14:45:52.089Z,21.10
2022-10-22T14:48:25.212Z,21.10
2022-10-22T14:50:57.935Z,21.10
2022-10-22T14:53:30.413Z,21.10
2022-10-22T14:56:02.948Z,21.00
2022-10-22T14:58:35.701Z,21.10
2022-10-22T15:01:09.094Z,21.10
2022-10-22T15:03:41.711Z,21.00
2022-10-22T15:06:14.282Z,21.00
2022-10-22T15:08:47.096Z,21.00
2022-10-22T15:11:19.721Z,20.90
2022-10-22T15:13:52.867Z,20.90
2022-10-22T15:16:26.273Z,20.90
2022-10-22T15:19:00.096Z,20.80
2022-10-22T15:21:32.757Z,20.80
2022-10-22T15:24:05.939Z,20.80
2022-10-22T15:26:38.437Z,20.80
2022-10-22T15:29:11.098Z,20.80
2022-10-22T15:31:46.359Z,20.70
2022-10-22T15:34:23.602Z,20.70
2022-10-22T15:36:58.503Z,20.70
2022-10-22T15:39:32.313Z,20.70
2022-10-22T15:42:04.935Z,20.70
2022-10-22T15:44:40.081Z,20.60
2022-10-22T15:47:12.977Z,20.60
2022-10-22T15:49:46.132Z,20.60
2022-10-22T15:52:18.718Z,20.50
2022-10-22T15:54:51.379Z,20.50
2022-10-22T15:57:24.134Z,20.50
2022-10-22T15:59:56.826Z,20.50
2022-10-22T16:02:29.544Z,20.40
2022-10-22T16:05:02.669Z,20.40
2022-10-22T16:07:35.964Z,20.40
2022-10-22T16:10:13.048Z,20.40
2022-10-22T16:12:45.665Z,20.40
2022-10-22T16:15:18.338Z,20.30
2022-10-22T16:17:52.459Z,20.30
2022-10-22T16:20:26.298Z,20.20
2022-10-22T16:22:59.150Z,20.20
2022-10-22T16:25:37.781Z,20.10
2022-10-22T16:28:13.178Z,20.10
2022-10-22T16:30:46.758Z,20.10
2022-10-22T16:33:19.530Z,20.10
2022-10-22T16:35:52.242Z,20.00
2022-10-22T16:38:25.087Z,20.00
2022-10-22T16:41:14.519Z,20.00
2022-10-22T16:43:49.618Z,19.90
2022-10-22T16:46:23.489Z,19.90
2022-10-22T16:48:56.367Z,19.90
2022-10-22T16:51:29.318Z,19.90
2022-10-22T16:54:05.557Z,19.80
2022-10-22T16:56:41.787Z,19.80
2022-10-22T16:59:14.583Z,19.80
2022-10-22T17:01:47.302Z,19.80
2022-10-22T17:04:19.895Z,19.70
2022-10-22T17:06:52.524Z,19.70
2022-10-22T17:09:25.572Z,19.60
2022-10-22T17:11:58.193Z,19.60
2022-10-22T17:14:30.702Z,19.50
2022-10-22T17:17:03.472Z,19.50
2022-10-22T17:19:38.937Z,19.50
2022-10-22T17:22:14.832Z,19.40
2022-10-22T17:25:22.176Z,19.40
2022-10-22T17:27:54.704Z,19.30
2022-10-22T17:30:28.699Z,19.30
2022-10-22T17:33:01.286Z,19.20
2022-10-22T17:35:35.208Z,19.20
2022-10-22T17:38:08.332Z,19.10
2022-10-22T17:40:41.148Z,19.00
2022-10-22T17:43:13.828Z,19.00
2022-10-22T17:45:46.528Z,19.00
2022-10-22T17:48:19.175Z,19.00
2022-10-22T17:50:52.856Z,18.90
2022-10-22T17:53:28.575Z,18.90
2022-10-22T17:56:02.987Z,18.90
2022-10-22T17:58:35.853Z,18.90
2022-10-22T18:01:16.732Z,18.80
2022-10-22T18:03:49.842Z,18.80
2022-10-22T18:06:23.676Z,18.80
2022-10-22T18:08:56.768Z,18.80
2022-10-22T18:11:31.814Z,18.80
2022-10-22T18:14:05.709Z,18.70
2022-10-22T18:16:38.404Z,18.70
2022-10-22T18:19:14.750Z,18.70
2022-10-22T18:21:47.563Z,18.60
2022-10-22T18:24:20.242Z,18.60
2022-10-22T18:26:53.004Z,18.50
2022-10-22T18:29:25.651Z,18.50
2022-10-22T18:31:58.258Z,18.50
2022-10-22T18:34:31.389Z,18.50
2022-10-22T18:37:04.269Z,18.50
2022-10-22T18:39:36.957Z,18.50
2022-10-22T18:42:09.542Z,18.50
2022-10-22T18:44:42.161Z,18.40
2022-10-22T18:47:14.692Z,18.40
2022-10-22T18:49:47.503Z,18.30
2022-10-22T18:52:20.320Z,18.30
2022-10-22T18:54:52.918Z,18.30
2022-10-22T18:57:26.205Z,18.30
2022-10-22T18:59:59.646Z,18.20
2022-10-22T19:02:33.526Z,18.20
2022-10-22T19:05:06.884Z,18.20
2022-10-22T19:07:41.324Z,18.20
2022-10-22T19:10:14.497Z,18.20
2022-10-22T19:12:47.079Z,18.20
2022-10-22T19:15:19.776Z,18.20
2022-10-22T19:17:52.316Z,18.10
2022-10-22T19:20:24.949Z,18.10
2022-10-22T19:22:57.744Z,18.10
2022-10-22T19:25:30.858Z,18.10
2022-10-22T19:28:03.470Z,18.00
2022-10-22T19:30:40.470Z,18.00
2022-10-22T19:33:13.111Z,18.00
2022-10-22T19:35:45.709Z,18.00
2022-10-22T19:38:18.308Z,18.00
2022-10-22T19:40:51.632Z,18.00
2022-10-22T19:43:24.361Z,18.00
2022-10-22T19:45:57.176Z,17.80
2022-10-22T19:48:30.514Z,18.00
2022-10-22T19:51:08.846Z,18.00
2022-10-22T19:53:44.093Z,17.90
2022-10-22T19:56:21.195Z,17.90
2022-10-22T19:58:53.939Z,18.00
2022-10-22T20:01:27.583Z,18.00
2022-10-22T20:04:01.720Z,17.90
2022-10-22T20:06:34.518Z,17.90
2022-10-22T20:09:07.369Z,17.80
2022-10-22T20:11:41.745Z,17.90
2022-10-22T20:14:15.152Z,17.90
2022-10-22T20:16:47.844Z,17.80
2022-10-22T20:19:22.356Z,17.80
2022-10-22T20:21:55.121Z,17.80
2022-10-22T20:24:27.745Z,17.70
2022-10-22T20:27:00.910Z,17.80
2022-10-22T20:29:33.698Z,17.70
2022-10-22T20:32:08.849Z,17.70
2022-10-22T20:34:42.708Z,17.70
2022-10-22T20:37:15.409Z,17.70
2022-10-22T20:39:50.249Z,17.70
2022-10-22T20:42:22.906Z,17.70
2022-10-22T20:44:55.511Z,17.60
2022-10-22T20:47:39.105Z,17.60
2022-10-22T20:50:21.554Z,17.60
2022-10-22T20:52:54.438Z,17.60
2022-10-22T20:55:28.676Z,17.60
2022-10-22T20:58:01.284Z,17.60
2022-10-22T21:00:36.298Z,17.60
2022-10-22T21:03:08.910Z,17.60
2022-10-22T21:05:41.753Z,17.60
2022-10-22T21:08:17.997Z,17.60
2022-10-22T21:10:50.600Z,17.60
2022-10-22T21:13:23.152Z,17.50
2022-10-22T21:15:56.238Z,17.50
2022-10-22T21:18:28.903Z,17.50
2022-10-22T21:21:03.011Z,17.50
2022-10-22T21:23:37.000Z,17.50
2022-10-22T21:26:09.741Z,17.40
2022-10-22T21:28:42.523Z,17.40
2022-10-22T21:31:22.306Z,17.40
2022-10-22T21:33:55.178Z,17.40
2022-10-22T21:36:27.888Z,17.40
2022-10-22T21:39:02.553Z,17.30
2022-10-22T21:41:36.764Z,17.30
2022-10-22T21:44:09.447Z,17.30
2022-10-22T21:46:42.039Z,17.30
2022-10-22T21:49:14.755Z,17.30
2022-10-22T21:51:47.563Z,17.30
2022-10-22T21:54:20.105Z,17.30
2022-10-22T21:56:52.617Z,17.30
2022-10-22T21:59:25.533Z,17.20
2022-10-22T22:02:02.203Z,17.20
2022-10-22T22:04:38.321Z,17.20
2022-10-22T22:07:10.892Z,17.20
2022-10-22T22:09:43.517Z,17.10
2022-10-22T22:12:16.282Z,17.20
2022-10-22T22:14:48.926Z,17.20
2022-10-22T22:17:21.593Z,17.10
2022-10-22T22:19:54.277Z,17.20
2022-10-22T22:22:28.328Z,17.10
2022-10-22T22:25:00.917Z,17.10
2022-10-22T22:27:33.558Z,17.10
2022-10-22T22:30:07.199Z,17.10
2022-10-22T22:32:41.271Z,17.10
2022-10-22T22:35:14.068Z,17.10
2022-10-22T22:37:46.713Z,17.20
2022-10-22T22:40:19.301Z,17.20
2022-10-22T22:42:51.960Z,17.10
2022-10-22T22:45:24.562Z,17.20
2022-10-22T22:47:57.343Z,17.10
2022-10-22T22:50:30.093Z,17.10
2022-10-22T22:53:02.807Z,17.10
2022-10-22T22:55:35.442Z,17.10
2022-10-22T22:58:08.053Z,17.10
2022-10-22T23:00:42.966Z,17.10
2022-10-22T23:03:15.601Z,17.10
2022-10-22T23:05:48.216Z,17.10
2022-10-22T23:08:20.696Z,17.10
2022-10-22T23:10:53.187Z,17.10
2022-10-22T23:13:25.713Z,17.10
2022-10-22T23:15:58.267Z,17.20
2022-10-22T23:18:30.801Z,17.10
2022-10-22T23:21:17.196Z,17.10
2022-10-22T23:23:53.595Z,17.10
2022-10-22T23:26:29.861Z,17.00
2022-10-22T23:29:05.478Z,17.00
2022-10-22T23:31:38.673Z,17.00
2022-10-22T23:34:13.337Z,17.00
2022-10-22T23:36:46.425Z,17.00
2022-10-22T23:39:22.949Z,17.00
2022-10-22T23:41:56.947Z,17.00
2022-10-22T23:44:29.607Z,16.90
2022-10-22T23:47:02.221Z,16.80
2022-10-22T23:49:34.951Z,16.80
2022-10-22T23:52:07.490Z,16.80
2022-10-22T23:54:40.081Z,16.80
2022-10-22T23:57:12.950Z,16.80
2022-10-22T23:59:45.545Z,16.80
